CBB weather

Jorge Wilsterman International Airport
Cochabamba, Cochabamba Department, Bolivia

Public forecast

Using degrees Celsius for public forecast. Weather courtesy of forecast.io.

METAR (pilot weather report)

Retrieved 2019/06/24 21:00 UTC (25 minutes ago):

SLCB 242100Z 28003KT 6000 NSC 26/M14 Q1018

TAF (pilot weather forecast)

Retrieved 2019/06/24 18:50 UTC (3 hours ago):

TAF SLCB 241650Z 2418/2518 04010KT 8000 NSC TX25/2419Z TN02/2511Z BECMG 2422/2424 12010KT BECMG 2502/2504 00000KT